createdAt,value
2023-01-29T00:00:22.486Z,12.80
2023-01-29T00:02:49.153Z,13.20
2023-01-29T00:05:27.473Z,13.70
2023-01-29T00:07:55.750Z,13.30
2023-01-29T00:10:22.636Z,13.70
2023-01-29T00:12:49.208Z,14.10
2023-01-29T00:15:15.785Z,13.20
2023-01-29T00:17:42.268Z,11.40
2023-01-29T00:20:09.553Z,12.70
2023-01-29T00:22:36.111Z,14.10
2023-01-29T00:25:02.772Z,10.80
2023-01-29T00:27:29.609Z,11.60
2023-01-29T00:29:56.127Z,13.10
2023-01-29T00:32:22.661Z,11.30
2023-01-29T00:34:49.166Z,14.10
2023-01-29T00:37:15.655Z,13.00
2023-01-29T00:39:48.147Z,13.40
2023-01-29T00:42:15.016Z,13.40
2023-01-29T00:44:41.525Z,13.40
2023-01-29T00:47:08.063Z,11.90
2023-01-29T00:49:34.563Z,15.00
2023-01-29T00:52:01.038Z,13.90
2023-01-29T00:54:27.519Z,13.60
2023-01-29T00:56:53.983Z,12.10
2023-01-29T00:59:20.460Z,14.00
2023-01-29T01:01:47.029Z,12.90
2023-01-29T01:04:13.959Z,15.20
2023-01-29T01:06:41.723Z,13.60
2023-01-29T01:09:09.746Z,11.40
2023-01-29T01:11:36.226Z,14.50
2023-01-29T01:14:02.707Z,13.00
2023-01-29T01:16:29.244Z,14.00
2023-01-29T01:18:55.862Z,12.20
2023-01-29T01:21:22.343Z,11.90
2023-01-29T01:23:48.825Z,13.70
2023-01-29T01:26:15.338Z,12.30
2023-01-29T01:28:41.820Z,14.90
2023-01-29T01:31:13.136Z,13.70
2023-01-29T01:33:40.328Z,13.50
2023-01-29T01:36:08.048Z,13.20
2023-01-29T01:38:34.762Z,13.90
2023-01-29T01:41:01.403Z,14.40
2023-01-29T01:43:27.927Z,13.60
2023-01-29T01:45:54.436Z,12.70
2023-01-29T01:48:26.589Z,13.60
2023-01-29T01:50:55.046Z,12.70
2023-01-29T01:53:28.845Z,13.10
2023-01-29T01:55:59.688Z,12.30
2023-01-29T01:58:31.848Z,12.50
2023-01-29T02:00:58.410Z,12.00
2023-01-29T02:03:28.278Z,13.50
2023-01-29T02:05:58.333Z,13.00
2023-01-29T02:08:32.470Z,13.70
2023-01-29T02:10:59.430Z,13.70
2023-01-29T02:13:27.059Z,12.20
2023-01-29T02:15:53.522Z,12.00
2023-01-29T02:18:21.533Z,14.00
2023-01-29T02:21:06.638Z,12.40
2023-01-29T02:23:43.741Z,12.60
2023-01-29T02:27:03.092Z,12.60
2023-01-29T02:29:39.324Z,11.50
2023-01-29T02:32:36.088Z,13.00
2023-01-29T02:35:16.745Z,12.80
2023-01-29T02:38:08.467Z,10.90
2023-01-29T02:40:47.062Z,10.80
2023-01-29T02:43:22.488Z,11.90
2023-01-29T02:46:17.207Z,11.30
2023-01-29T02:49:22.515Z,9.50
2023-01-29T02:52:14.974Z,11.60
2023-01-29T02:54:48.949Z,11.00
2023-01-29T02:57:23.116Z,12.70
2023-01-29T03:00:00.284Z,12.90
2023-01-29T03:02:35.892Z,12.90
2023-01-29T03:05:08.422Z,11.40
2023-01-29T03:07:40.533Z,12.00
2023-01-29T03:10:28.630Z,10.60
2023-01-29T03:13:01.336Z,12.00
2023-01-29T03:15:36.269Z,11.40
2023-01-29T03:18:11.330Z,11.20
2023-01-29T03:20:43.555Z,11.80
2023-01-29T03:23:19.164Z,12.50
2023-01-29T03:25:45.867Z,11.10
2023-01-29T03:28:17.494Z,8.90
2023-01-29T03:33:43.682Z,10.40
2023-01-29T03:36:16.948Z,11.40
2023-01-29T03:38:44.577Z,10.90
2023-01-29T03:41:22.344Z,11.10
2023-01-29T03:44:00.535Z,10.70
2023-01-29T03:46:36.318Z,12.20
2023-01-29T03:49:15.277Z,11.80
2023-01-29T03:51:51.373Z,12.50
2023-01-29T03:54:46.913Z,13.70
2023-01-29T03:57:55.617Z,12.10
2023-01-29T04:00:37.945Z,11.30
2023-01-29T04:03:20.519Z,10.80
2023-01-29T04:05:58.093Z,11.40
2023-01-29T04:08:29.179Z,11.90
2023-01-29T04:10:59.407Z,11.60
2023-01-29T04:13:27.510Z,12.80
2023-01-29T04:15:58.198Z,12.00
2023-01-29T04:18:25.143Z,12.60
2023-01-29T04:20:52.747Z,11.50
2023-01-29T04:23:24.874Z,12.00
2023-01-29T04:26:04.560Z,11.40
2023-01-29T04:28:50.945Z,12.60
2023-01-29T04:31:18.127Z,11.60
2023-01-29T04:33:56.299Z,12.20
2023-01-29T04:36:52.027Z,12.00
2023-01-29T04:39:25.132Z,12.40
2023-01-29T04:41:59.302Z,13.00
2023-01-29T04:44:36.490Z,11.10
2023-01-29T04:47:25.064Z,11.30
2023-01-29T04:50:20.872Z,10.10
2023-01-29T04:53:07.954Z,10.30
2023-01-29T04:55:43.135Z,11.20
2023-01-29T04:58:15.266Z,10.20
2023-01-29T05:00:48.787Z,10.40
2023-01-29T05:03:16.795Z,10.00
2023-01-29T05:05:47.497Z,10.90
2023-01-29T05:08:17.701Z,11.90
2023-01-29T05:10:46.253Z,10.50
2023-01-29T05:13:14.987Z,11.30
2023-01-29T05:15:49.541Z,9.70
2023-01-29T05:18:16.460Z,9.60
2023-01-29T05:20:43.952Z,8.80
2023-01-29T05:23:19.166Z,9.90
2023-01-29T05:25:46.937Z,8.60
2023-01-29T05:28:13.925Z,8.70
2023-01-29T05:30:40.449Z,10.30
2023-01-29T05:33:16.720Z,9.60
2023-01-29T05:35:43.277Z,8.50
2023-01-29T05:38:10.368Z,7.40
2023-01-29T05:40:37.705Z,7.90
2023-01-29T05:43:04.659Z,7.20
2023-01-29T05:45:32.096Z,9.30
2023-01-29T05:47:59.791Z,8.20
2023-01-29T05:50:27.866Z,6.20
2023-01-29T05:52:58.996Z,7.90
2023-01-29T05:55:26.135Z,8.80
2023-01-29T05:57:52.725Z,8.90
2023-01-29T06:00:19.716Z,8.50
2023-01-29T06:02:46.206Z,9.00
2023-01-29T06:05:12.687Z,8.00
2023-01-29T06:07:39.482Z,8.80
2023-01-29T06:10:06.457Z,9.40
2023-01-29T06:12:32.981Z,8.30
2023-01-29T06:14:59.426Z,8.60
2023-01-29T06:17:25.913Z,7.40
2023-01-29T06:19:52.377Z,7.90
2023-01-29T06:22:18.950Z,8.70
2023-01-29T06:24:45.400Z,8.50
2023-01-29T06:27:11.926Z,8.10
2023-01-29T06:29:38.431Z,8.40
2023-01-29T06:32:05.286Z,8.60
2023-01-29T06:34:31.911Z,7.70
2023-01-29T06:36:58.404Z,9.10
2023-01-29T06:39:24.911Z,8.60
2023-01-29T06:41:51.397Z,8.70
2023-01-29T06:44:17.923Z,8.30
2023-01-29T06:46:44.389Z,7.30
2023-01-29T06:49:10.892Z,7.10
2023-01-29T06:51:37.440Z,6.60
2023-01-29T06:54:04.199Z,7.00
2023-01-29T06:56:30.733Z,6.90
2023-01-29T06:58:57.277Z,8.90
2023-01-29T07:01:35.626Z,7.70
2023-01-29T07:04:02.992Z,7.40
2023-01-29T07:06:30.673Z,7.40
2023-01-29T07:08:57.152Z,6.30
2023-01-29T07:11:24.029Z,6.30
2023-01-29T07:13:50.660Z,8.20
2023-01-29T07:16:17.238Z,8.50
2023-01-29T07:18:43.732Z,8.70
2023-01-29T07:21:10.255Z,7.70
2023-01-29T07:23:37.240Z,6.70
2023-01-29T07:26:06.373Z,8.20
2023-01-29T07:28:37.469Z,7.70
2023-01-29T07:31:05.392Z,8.10
2023-01-29T07:33:32.441Z,5.60
2023-01-29T07:35:58.988Z,8.10
2023-01-29T07:38:25.828Z,7.50
2023-01-29T07:40:53.076Z,6.70
2023-01-29T07:43:19.928Z,7.50
2023-01-29T07:45:46.528Z,8.00
2023-01-29T07:48:13.888Z,8.50
2023-01-29T07:50:41.144Z,9.10
2023-01-29T07:53:10.028Z,9.00
2023-01-29T07:55:36.513Z,10.00
2023-01-29T07:58:03.509Z,7.90
2023-01-29T08:00:32.024Z,7.90
2023-01-29T08:03:06.242Z,9.90
2023-01-29T08:05:33.286Z,7.70
2023-01-29T08:08:06.559Z,7.70
2023-01-29T08:10:35.759Z,7.60
2023-01-29T08:13:03.207Z,7.60
2023-01-29T08:15:30.409Z,8.60
2023-01-29T08:17:58.486Z,7.50
2023-01-29T08:20:25.949Z,8.70
2023-01-29T08:23:03.983Z,8.40
2023-01-29T08:25:30.646Z,7.90
2023-01-29T08:27:58.563Z,8.00
2023-01-29T08:30:29.918Z,8.00
2023-01-29T08:32:56.388Z,8.30
2023-01-29T08:35:23.124Z,7.70
2023-01-29T08:37:54.144Z,7.60
2023-01-29T08:40:21.321Z,7.80
2023-01-29T08:42:47.926Z,7.20
2023-01-29T08:45:14.432Z,7.90
2023-01-29T08:47:48.890Z,7.50
2023-01-29T08:50:16.985Z,6.00
2023-01-29T08:52:44.107Z,6.90
2023-01-29T08:55:11.304Z,7.30
2023-01-29T08:57:39.068Z,7.70
2023-01-29T09:00:08.288Z,6.90
2023-01-29T09:02:34.967Z,6.70
2023-01-29T09:05:01.574Z,5.70
2023-01-29T09:07:29.686Z,6.80
2023-01-29T09:09:56.188Z,5.40
2023-01-29T09:12:22.725Z,7.00
2023-01-29T09:14:49.226Z,6.60
2023-01-29T09:17:15.763Z,7.00
2023-01-29T09:19:42.199Z,7.60
2023-01-29T09:22:10.905Z,8.60
2023-01-29T09:24:38.060Z,5.40
2023-01-29T09:27:04.552Z,6.80
2023-01-29T09:29:31.050Z,5.40
2023-01-29T09:31:57.622Z,5.60
2023-01-29T09:34:24.198Z,6.30
2023-01-29T09:36:52.650Z,6.70
2023-01-29T09:39:19.099Z,6.80
2023-01-29T09:41:57.093Z,5.90
2023-01-29T09:44:45.288Z,6.90
2023-01-29T09:47:15.946Z,5.70
2023-01-29T09:49:58.278Z,6.40
2023-01-29T09:52:33.182Z,6.00
2023-01-29T09:55:05.913Z,6.20
2023-01-29T09:57:46.480Z,6.20
2023-01-29T10:00:23.261Z,6.60
2023-01-29T10:02:58.923Z,6.40
2023-01-29T10:05:31.159Z,5.90
2023-01-29T10:08:16.441Z,7.10
2023-01-29T10:11:04.543Z,5.90
2023-01-29T10:14:06.685Z,4.80
2023-01-29T10:16:57.965Z,5.50
2023-01-29T10:19:52.358Z,4.50
2023-01-29T10:22:37.681Z,6.60
2023-01-29T10:25:10.146Z,6.90
2023-01-29T10:27:41.065Z,4.70
2023-01-29T10:30:21.742Z,5.00
2023-01-29T10:32:48.750Z,6.50
2023-01-29T10:35:23.580Z,6.00
2023-01-29T10:37:53.234Z,5.10
2023-01-29T10:40:40.869Z,5.80
2023-01-29T10:43:29.589Z,5.80
2023-01-29T10:46:37.619Z,6.60
2023-01-29T10:49:28.263Z,5.30
2023-01-29T10:52:25.028Z,6.70
2023-01-29T10:54:51.491Z,5.70
2023-01-29T10:57:56.576Z,6.10
2023-01-29T11:00:30.223Z,6.70
2023-01-29T11:02:57.063Z,7.00
2023-01-29T11:05:34.131Z,5.00
2023-01-29T11:08:10.166Z,6.10
2023-01-29T11:10:50.275Z,5.50
2023-01-29T11:13:18.127Z,4.00
2023-01-29T11:15:44.823Z,6.00
2023-01-29T11:18:14.413Z,5.60
2023-01-29T11:20:45.788Z,6.40
2023-01-29T11:23:33.397Z,5.60
2023-01-29T11:26:00.999Z,4.70
2023-01-29T11:28:42.134Z,5.40
2023-01-29T11:31:22.721Z,5.40
2023-01-29T11:33:52.225Z,5.50
2023-01-29T11:36:29.626Z,3.90
2023-01-29T11:39:26.490Z,6.10
2023-01-29T11:42:01.081Z,7.20
2023-01-29T11:44:40.069Z,5.10
2023-01-29T11:47:19.093Z,5.00
2023-01-29T11:49:49.278Z,4.70
2023-01-29T11:52:19.168Z,5.20
2023-01-29T11:54:57.750Z,4.70
2023-01-29T11:57:25.352Z,5.20
2023-01-29T11:59:53.680Z,6.10
2023-01-29T12:02:26.114Z,4.40
2023-01-29T12:04:55.420Z,6.80
2023-01-29T12:07:22.476Z,5.50
2023-01-29T12:09:59.719Z,6.00
2023-01-29T12:12:31.921Z,6.70
2023-01-29T12:15:16.941Z,4.80
2023-01-29T12:17:51.023Z,5.30
2023-01-29T12:20:25.504Z,4.30
2023-01-29T12:23:02.595Z,6.10
2023-01-29T12:25:50.359Z,5.00
2023-01-29T12:28:30.158Z,5.50
2023-01-29T12:31:35.458Z,5.00
2023-01-29T12:34:08.328Z,5.60
2023-01-29T12:36:50.366Z,4.80
2023-01-29T12:39:17.507Z,6.00
2023-01-29T12:41:52.818Z,5.10
2023-01-29T12:44:28.509Z,5.60
2023-01-29T12:46:59.434Z,5.90
2023-01-29T12:49:30.640Z,4.60
2023-01-29T12:52:11.887Z,4.70
2023-01-29T12:54:43.222Z,5.00
2023-01-29T12:57:24.216Z,5.70
2023-01-29T12:59:58.218Z,6.00
2023-01-29T13:02:35.175Z,5.70
2023-01-29T13:05:37.688Z,4.60
2023-01-29T13:08:08.791Z,4.80
2023-01-29T13:10:41.297Z,4.90
2023-01-29T13:13:34.702Z,4.80
2023-01-29T13:16:05.453Z,3.80
2023-01-29T13:18:40.827Z,4.30
2023-01-29T13:21:13.256Z,4.70
2023-01-29T13:23:45.059Z,4.30
2023-01-29T13:26:13.812Z,4.50
2023-01-29T13:28:44.596Z,4.10
2023-01-29T13:31:33.604Z,5.20
2023-01-29T13:34:21.744Z,4.60
2023-01-29T13:36:51.779Z,5.40
2023-01-29T13:39:29.722Z,4.40
2023-01-29T13:41:58.133Z,5.00
2023-01-29T13:44:29.507Z,4.50
2023-01-29T13:47:03.434Z,5.20
2023-01-29T13:49:35.291Z,4.60
2023-01-29T13:52:43.428Z,5.60
2023-01-29T13:55:19.405Z,5.70
2023-01-29T13:57:45.974Z,5.60
2023-01-29T14:00:21.587Z,7.80
2023-01-29T14:03:00.250Z,6.20
2023-01-29T14:05:29.801Z,4.60
2023-01-29T14:08:05.825Z,5.10
2023-01-29T14:10:34.263Z,4.20
2023-01-29T14:13:03.881Z,5.90
2023-01-29T14:15:36.221Z,5.20
2023-01-29T14:18:09.012Z,5.50
2023-01-29T14:20:45.652Z,5.70
2023-01-29T14:23:29.196Z,5.80
2023-01-29T14:25:57.353Z,5.40
2023-01-29T14:28:28.240Z,4.90
2023-01-29T14:30:55.564Z,5.20
2023-01-29T14:33:34.653Z,5.00
2023-01-29T14:36:06.389Z,4.40
2023-01-29T14:38:33.821Z,4.60
2023-01-29T14:41:25.577Z,4.70
2023-01-29T14:43:52.107Z,3.50
2023-01-29T14:46:33.696Z,4.40
2023-01-29T14:49:01.134Z,3.50
2023-01-29T14:51:34.375Z,5.70
2023-01-29T14:54:00.831Z,4.50
2023-01-29T14:56:45.658Z,4.30
2023-01-29T14:59:27.866Z,4.70
2023-01-29T15:01:56.917Z,3.80
2023-01-29T15:04:43.621Z,5.00
2023-01-29T15:07:10.023Z,9.00
2023-01-29T15:09:47.951Z,28.10
2023-01-29T15:12:20.592Z,13.20
2023-01-29T15:15:10.309Z,7.00
2023-01-29T15:17:46.468Z,6.50
2023-01-29T15:20:35.579Z,7.00
2023-01-29T15:23:04.027Z,7.80
2023-01-29T15:25:47.303Z,5.30
2023-01-29T15:28:13.798Z,5.90
2023-01-29T15:30:40.476Z,4.80
2023-01-29T15:33:10.505Z,5.40
2023-01-29T15:35:39.626Z,5.20
2023-01-29T15:38:23.718Z,5.30
2023-01-29T15:41:01.489Z,5.20
2023-01-29T15:43:36.448Z,4.90
2023-01-29T15:46:07.096Z,4.60
2023-01-29T15:48:40.521Z,4.90
2023-01-29T15:51:19.652Z,5.20
2023-01-29T15:53:51.882Z,4.80
2023-01-29T15:56:21.559Z,5.00
2023-01-29T15:58:50.020Z,5.60
2023-01-29T16:01:17.094Z,5.90
2023-01-29T16:03:44.956Z,5.40
2023-01-29T16:06:11.882Z,5.80
2023-01-29T16:08:39.967Z,5.80
2023-01-29T16:11:08.734Z,5.60
2023-01-29T16:13:41.201Z,5.30
2023-01-29T16:16:23.739Z,4.70
2023-01-29T16:18:59.510Z,5.00
2023-01-29T16:21:35.264Z,4.10
2023-01-29T16:24:03.298Z,5.10
2023-01-29T16:26:36.810Z,5.70
2023-01-29T16:29:12.141Z,5.70
2023-01-29T16:31:40.003Z,5.30
2023-01-29T16:34:18.290Z,5.80
2023-01-29T16:36:49.033Z,5.50
2023-01-29T16:39:26.480Z,5.50
2023-01-29T16:42:11.110Z,5.60
2023-01-29T16:44:45.461Z,4.40
2023-01-29T16:47:13.978Z,6.90
2023-01-29T16:49:40.417Z,5.80
2023-01-29T16:52:28.840Z,6.60
2023-01-29T16:55:12.012Z,6.50
2023-01-29T16:57:40.336Z,5.80
2023-01-29T17:00:12.000Z,5.70
2023-01-29T17:02:39.329Z,5.90
2023-01-29T17:05:09.677Z,5.90
2023-01-29T17:07:36.955Z,4.80
2023-01-29T17:10:06.366Z,6.00
2023-01-29T17:12:33.900Z,5.90
2023-01-29T17:15:04.006Z,6.10
2023-01-29T17:17:31.817Z,6.50
2023-01-29T17:20:15.751Z,6.50
2023-01-29T17:22:42.366Z,6.40
2023-01-29T17:25:13.322Z,7.20
2023-01-29T17:27:44.168Z,7.10
2023-01-29T17:30:18.182Z,5.10
2023-01-29T17:32:47.527Z,4.90
2023-01-29T17:35:16.027Z,7.70
2023-01-29T17:37:43.012Z,4.40
2023-01-29T17:40:45.594Z,5.90
2023-01-29T17:43:12.230Z,5.90
2023-01-29T17:45:40.172Z,6.10
2023-01-29T17:48:24.162Z,6.20
2023-01-29T17:50:53.511Z,6.30
2023-01-29T17:53:26.529Z,5.70
2023-01-29T17:55:57.246Z,7.90
2023-01-29T17:58:25.926Z,7.80
2023-01-29T18:00:53.503Z,7.60
2023-01-29T18:03:20.848Z,8.90
2023-01-29T18:05:49.057Z,7.90
2023-01-29T18:08:22.075Z,6.90
2023-01-29T18:10:48.520Z,6.70
2023-01-29T18:13:14.988Z,7.40
2023-01-29T18:15:41.562Z,7.50
2023-01-29T18:18:13.633Z,7.70
2023-01-29T18:20:40.274Z,5.30
2023-01-29T18:23:08.154Z,7.10
2023-01-29T18:25:35.058Z,6.50
2023-01-29T18:28:02.500Z,6.80
2023-01-29T18:30:29.079Z,5.70
2023-01-29T18:32:55.682Z,7.70
2023-01-29T18:35:22.185Z,6.60
2023-01-29T18:37:48.684Z,6.20
2023-01-29T18:40:15.681Z,6.60
2023-01-29T18:42:42.259Z,6.40
2023-01-29T18:45:09.211Z,6.10
2023-01-29T18:47:35.723Z,5.40
2023-01-29T18:50:02.220Z,5.60
2023-01-29T18:52:28.719Z,8.10
2023-01-29T18:54:55.278Z,5.80
2023-01-29T18:58:27.239Z,8.20
2023-01-29T19:00:09.150Z,6.40
2023-01-29T19:02:35.732Z,6.10
2023-01-29T19:05:02.408Z,4.90
2023-01-29T19:07:29.228Z,6.00
2023-01-29T19:09:55.765Z,6.00
2023-01-29T19:12:23.235Z,6.40
2023-01-29T19:14:49.787Z,6.20
2023-01-29T19:17:16.312Z,5.80
2023-01-29T19:19:43.070Z,4.40
2023-01-29T19:22:09.569Z,5.50
2023-01-29T19:24:36.027Z,6.00
2023-01-29T19:27:02.576Z,4.80
2023-01-29T19:29:29.123Z,6.00
2023-01-29T19:31:55.728Z,6.60
2023-01-29T19:34:22.203Z,5.20
2023-01-29T19:36:48.691Z,6.90
2023-01-29T19:39:15.211Z,4.90
2023-01-29T19:41:41.752Z,6.20
2023-01-29T19:44:08.405Z,5.50
2023-01-29T19:46:34.950Z,5.90
2023-01-29T19:49:01.868Z,5.30
2023-01-29T19:51:29.314Z,6.70
2023-01-29T19:53:55.961Z,7.70
2023-01-29T19:56:22.521Z,7.00
2023-01-29T19:58:48.989Z,6.80
2023-01-29T20:01:16.814Z,6.80
2023-01-29T20:03:44.404Z,3.80
2023-01-29T20:06:10.867Z,5.40
2023-01-29T20:08:37.486Z,6.20
2023-01-29T20:11:04.259Z,5.20
2023-01-29T20:13:31.499Z,6.90
2023-01-29T20:15:58.190Z,6.60
2023-01-29T20:18:24.713Z,6.90
2023-01-29T20:20:51.537Z,5.40
2023-01-29T20:23:31.826Z,6.30
2023-01-29T20:26:03.754Z,8.10
2023-01-29T20:28:33.068Z,6.00
2023-01-29T20:30:59.733Z,6.10
2023-01-29T20:33:26.955Z,6.60
2023-01-29T20:35:58.303Z,6.60
2023-01-29T20:38:25.908Z,6.80
2023-01-29T20:40:52.371Z,5.60
2023-01-29T20:43:18.848Z,6.10
2023-01-29T20:45:45.358Z,5.10
2023-01-29T20:48:11.935Z,8.20
2023-01-29T20:50:38.557Z,6.60
2023-01-29T20:53:05.037Z,8.10
2023-01-29T20:55:31.692Z,6.60
2023-01-29T20:58:06.377Z,7.40
2023-01-29T21:00:33.487Z,6.30
2023-01-29T21:03:01.301Z,6.00
2023-01-29T21:05:27.780Z,7.00
2023-01-29T21:07:54.251Z,5.90
2023-01-29T21:10:20.768Z,6.60
2023-01-29T21:12:47.266Z,6.10
2023-01-29T21:15:13.755Z,6.30
2023-01-29T21:17:40.263Z,7.10
2023-01-29T21:20:07.314Z,8.40
2023-01-29T21:22:34.075Z,7.10
2023-01-29T21:25:00.632Z,6.20
2023-01-29T21:27:27.119Z,8.10
2023-01-29T21:29:53.612Z,6.50
2023-01-29T21:32:20.116Z,7.40
2023-01-29T21:34:46.587Z,7.60
2023-01-29T21:37:13.191Z,7.20
2023-01-29T21:39:39.658Z,7.50
2023-01-29T21:42:06.274Z,6.90
2023-01-29T21:44:34.089Z,7.50
2023-01-29T21:47:01.044Z,5.10
2023-01-29T21:49:27.743Z,7.50
2023-01-29T21:51:54.239Z,8.50
2023-01-29T21:54:20.725Z,9.30
2023-01-29T21:56:47.324Z,9.70
2023-01-29T21:59:13.930Z,8.70
2023-01-29T22:01:40.416Z,8.00
2023-01-29T22:04:06.962Z,7.20
2023-01-29T22:06:36.162Z,7.30
2023-01-29T22:09:02.867Z,7.70
2023-01-29T22:11:29.573Z,6.70
2023-01-29T22:13:56.028Z,6.60
2023-01-29T22:16:22.566Z,8.00
2023-01-29T22:18:49.467Z,7.00
2023-01-29T22:21:15.940Z,8.40
2023-01-29T22:23:42.503Z,8.30
2023-01-29T22:26:10.868Z,8.10
2023-01-29T22:28:37.387Z,7.70
2023-01-29T22:31:05.495Z,8.20
2023-01-29T22:33:32.379Z,6.20
2023-01-29T22:35:59.655Z,7.60
2023-01-29T22:38:26.203Z,7.70
2023-01-29T22:40:54.081Z,6.70
2023-01-29T22:43:21.615Z,7.90
2023-01-29T22:45:48.406Z,9.70
2023-01-29T22:48:15.478Z,9.40
2023-01-29T22:50:41.946Z,9.20
2023-01-29T22:53:08.960Z,8.40
2023-01-29T22:55:35.415Z,9.70
2023-01-29T22:58:01.908Z,8.30
2023-01-29T23:00:28.412Z,8.00
2023-01-29T23:02:54.926Z,7.90
2023-01-29T23:05:21.409Z,6.90
2023-01-29T23:07:47.921Z,6.40
2023-01-29T23:10:15.040Z,6.50
2023-01-29T23:12:41.686Z,6.80
2023-01-29T23:15:08.446Z,7.90
2023-01-29T23:17:34.978Z,6.70
2023-01-29T23:20:01.777Z,6.40
2023-01-29T23:22:29.451Z,9.60
2023-01-29T23:24:55.953Z,9.90
2023-01-29T23:27:22.417Z,6.50
2023-01-29T23:29:49.042Z,8.10
2023-01-29T23:32:19.983Z,8.40
2023-01-29T23:34:46.521Z,6.50
2023-01-29T23:37:13.620Z,8.70
2023-01-29T23:39:40.171Z,8.40
2023-01-29T23:42:06.687Z,5.80
2023-01-29T23:44:33.454Z,6.50
2023-01-29T23:46:59.975Z,7.80
2023-01-29T23:49:26.800Z,7.40
2023-01-29T23:51:53.356Z,10.20
2023-01-29T23:54:19.844Z,9.60
2023-01-29T23:56:46.361Z,10.90
2023-01-29T23:59:13.055Z,9.80
